sensor_id;sensor_type;location;lat;lon;timestamp;pressure;altitude;pressure_sealevel;temperature;humidity
13581;BME280;6861;46.170;7.222;2023-02-25T00:01:42;94879.25;;;12.41;51.58
13581;BME280;6861;46.170;7.222;2023-02-25T00:04:29;94880.63;;;12.39;51.58
13581;BME280;6861;46.170;7.222;2023-02-25T00:06:57;94878.44;;;12.32;52.41
13581;BME280;6861;46.170;7.222;2023-02-25T00:09:27;94884.28;;;12.29;51.97
13581;BME280;6861;46.170;7.222;2023-02-25T00:11:55;94897.41;;;12.29;52.46
13581;BME280;6861;46.170;7.222;2023-02-25T00:14:23;94897.69;;;12.28;52.72
13581;BME280;6861;46.170;7.222;2023-02-25T00:16:51;94900.31;;;12.28;52.36
13581;BME280;6861;46.170;7.222;2023-02-25T00:19:22;94889.06;;;12.27;52.42
13581;BME280;6861;46.170;7.222;2023-02-25T00:21:50;94885.97;;;12.25;53.52
13581;BME280;6861;46.170;7.222;2023-02-25T00:24:18;94879.16;;;12.24;52.85
13581;BME280;6861;46.170;7.222;2023-02-25T00:26:47;94898.78;;;12.27;52.97
13581;BME280;6861;46.170;7.222;2023-02-25T00:29:15;94892.28;;;12.24;53.65
13581;BME280;6861;46.170;7.222;2023-02-25T00:31:43;94893.34;;;12.23;53.19
13581;BME280;6861;46.170;7.222;2023-02-25T00:34:12;94900.75;;;12.21;53.93
13581;BME280;6861;46.170;7.222;2023-02-25T00:36:40;94889.19;;;12.22;54.19
13581;BME280;6861;46.170;7.222;2023-02-25T00:39:08;94899.66;;;12.22;53.26
13581;BME280;6861;46.170;7.222;2023-02-25T00:41:37;94894.72;;;12.21;54.16
13581;BME280;6861;46.170;7.222;2023-02-25T00:44:07;94898.13;;;12.21;54.25
13581;BME280;6861;46.170;7.222;2023-02-25T00:46:35;94889.00;;;12.19;54.79
13581;BME280;6861;46.170;7.222;2023-02-25T00:49:03;94892.22;;;12.15;54.02
13581;BME280;6861;46.170;7.222;2023-02-25T00:51:32;94883.13;;;12.13;54.85
13581;BME280;6861;46.170;7.222;2023-02-25T00:54:00;94897.44;;;12.07;54.86
13581;BME280;6861;46.170;7.222;2023-02-25T00:56:28;94898.81;;;12.04;55.05
13581;BME280;6861;46.170;7.222;2023-02-25T00:58:58;94906.50;;;12.01;54.98
13581;BME280;6861;46.170;7.222;2023-02-25T01:01:29;94890.59;;;11.97;55.46
13581;BME280;6861;46.170;7.222;2023-02-25T01:03:59;94906.94;;;11.94;55.05
13581;BME280;6861;46.170;7.222;2023-02-25T01:06:32;94902.47;;;11.95;55.32
13581;BME280;6861;46.170;7.222;2023-02-25T01:09:02;94897.81;;;11.92;54.89
13581;BME280;6861;46.170;7.222;2023-02-25T01:11:32;94896.84;;;11.88;55.91
13581;BME280;6861;46.170;7.222;2023-02-25T01:14:03;94905.31;;;11.85;55.24
13581;BME280;6861;46.170;7.222;2023-02-25T01:16:33;94909.31;;;11.82;55.73
13581;BME280;6861;46.170;7.222;2023-02-25T01:19:05;94910.38;;;11.81;55.46
13581;BME280;6861;46.170;7.222;2023-02-25T01:21:35;94897.88;;;11.78;55.62
13581;BME280;6861;46.170;7.222;2023-02-25T01:24:06;94884.09;;;11.72;55.90
13581;BME280;6861;46.170;7.222;2023-02-25T01:26:36;94891.47;;;11.70;55.94
13581;BME280;6861;46.170;7.222;2023-02-25T01:29:05;94887.28;;;11.69;55.74
13581;BME280;6861;46.170;7.222;2023-02-25T01:31:35;94875.28;;;11.68;56.54
13581;BME280;6861;46.170;7.222;2023-02-25T01:34:05;94878.47;;;11.65;55.73
13581;BME280;6861;46.170;7.222;2023-02-25T01:36:34;94885.88;;;11.63;56.04
13581;BME280;6861;46.170;7.222;2023-02-25T01:39:02;94875.97;;;11.60;56.03
13581;BME280;6861;46.170;7.222;2023-02-25T01:41:32;94875.19;;;11.60;56.21
13581;BME280;6861;46.170;7.222;2023-02-25T01:44:09;94869.19;;;11.59;56.30
13581;BME280;6861;46.170;7.222;2023-02-25T01:46:41;94875.03;;;11.56;56.15
13581;BME280;6861;46.170;7.222;2023-02-25T01:49:13;94863.59;;;11.52;56.27
13581;BME280;6861;46.170;7.222;2023-02-25T01:51:44;94857.28;;;11.53;55.83
13581;BME280;6861;46.170;7.222;2023-02-25T01:54:13;94855.84;;;11.47;56.05
13581;BME280;6861;46.170;7.222;2023-02-25T01:56:46;94858.56;;;11.42;56.26
13581;BME280;6861;46.170;7.222;2023-02-25T01:59:16;94859.94;;;11.39;56.37
13581;BME280;6861;46.170;7.222;2023-02-25T02:01:46;94871.00;;;11.36;56.29
13581;BME280;6861;46.170;7.222;2023-02-25T02:04:16;94855.69;;;11.30;56.61
13581;BME280;6861;46.170;7.222;2023-02-25T02:06:46;94847.38;;;11.28;56.52
13581;BME280;6861;46.170;7.222;2023-02-25T02:09:18;94852.44;;;11.24;56.98
13581;BME280;6861;46.170;7.222;2023-02-25T02:11:47;94852.25;;;11.21;56.62
13581;BME280;6861;46.170;7.222;2023-02-25T02:14:18;94859.47;;;11.15;56.46
13581;BME280;6861;46.170;7.222;2023-02-25T02:17:15;94853.56;;;11.09;56.32
13581;BME280;6861;46.170;7.222;2023-02-25T02:19:58;94847.84;;;11.07;56.77
13581;BME280;6861;46.170;7.222;2023-02-25T02:22:40;94845.31;;;11.02;56.83
13581;BME280;6861;46.170;7.222;2023-02-25T02:28:25;94845.91;;;10.99;56.42
13581;BME280;6861;46.170;7.222;2023-02-25T02:31:19;94842.22;;;11.00;56.45
13581;BME280;6861;46.170;7.222;2023-02-25T02:33:57;94833.91;;;10.98;56.56
13581;BME280;6861;46.170;7.222;2023-02-25T02:36:37;94834.47;;;10.95;56.26
13581;BME280;6861;46.170;7.222;2023-02-25T02:39:13;94837.19;;;10.90;56.69
13581;BME280;6861;46.170;7.222;2023-02-25T02:41:47;94834.50;;;10.81;56.94
13581;BME280;6861;46.170;7.222;2023-02-25T02:44:23;94832.56;;;10.73;57.15
13581;BME280;6861;46.170;7.222;2023-02-25T02:46:58;94833.44;;;10.69;57.19
13581;BME280;6861;46.170;7.222;2023-02-25T02:49:31;94830.66;;;10.65;57.28
13581;BME280;6861;46.170;7.222;2023-02-25T02:52:06;94825.22;;;10.62;57.17
13581;BME280;6861;46.170;7.222;2023-02-25T02:54:43;94830.66;;;10.65;56.81
13581;BME280;6861;46.170;7.222;2023-02-25T02:57:13;94829.28;;;10.68;56.83
13581;BME280;6861;46.170;7.222;2023-02-25T02:59:46;94839.75;;;10.68;56.79
13581;BME280;6861;46.170;7.222;2023-02-25T03:02:19;94839.75;;;10.68;56.98
13581;BME280;6861;46.170;7.222;2023-02-25T03:04:52;94841.09;;;10.65;56.89
13581;BME280;6861;46.170;7.222;2023-02-25T03:07:22;94836.66;;;10.66;57.10
13581;BME280;6861;46.170;7.222;2023-02-25T03:09:52;94836.06;;;10.69;56.58
13581;BME280;6861;46.170;7.222;2023-02-25T03:12:22;94835.97;;;10.74;56.51
13581;BME280;6861;46.170;7.222;2023-02-25T03:14:50;94830.03;;;10.82;56.27
13581;BME280;6861;46.170;7.222;2023-02-25T03:17:21;94820.53;;;10.86;55.99
13581;BME280;6861;46.170;7.222;2023-02-25T03:19:55;94826.56;;;10.87;56.20
13581;BME280;6861;46.170;7.222;2023-02-25T03:22:28;94820.25;;;10.88;55.83
13581;BME280;6861;46.170;7.222;2023-02-25T03:25:02;94818.09;;;10.90;55.85
13581;BME280;6861;46.170;7.222;2023-02-25T03:27:37;94811.31;;;10.89;55.87
13581;BME280;6861;46.170;7.222;2023-02-25T03:30:09;94818.41;;;10.88;55.69
13581;BME280;6861;46.170;7.222;2023-02-25T03:32:45;94814.25;;;10.87;55.36
13581;BME280;6861;46.170;7.222;2023-02-25T03:35:16;94810.06;;;10.86;55.54
13581;BME280;6861;46.170;7.222;2023-02-25T03:37:49;94805.53;;;10.78;56.11
13581;BME280;6861;46.170;7.222;2023-02-25T03:40:18;94811.94;;;10.72;56.40
13581;BME280;6861;46.170;7.222;2023-02-25T03:42:51;94803.59;;;10.70;56.16
13581;BME280;6861;46.170;7.222;2023-02-25T03:45:20;94804.19;;;10.67;56.54
13581;BME280;6861;46.170;7.222;2023-02-25T03:47:51;94812.63;;;10.64;56.46
13581;BME280;6861;46.170;7.222;2023-02-25T03:50:23;94810.13;;;10.59;56.30
13581;BME280;6861;46.170;7.222;2023-02-25T03:52:52;94819.41;;;10.51;56.92
13581;BME280;6861;46.170;7.222;2023-02-25T03:55:21;94821.06;;;10.47;56.80
13581;BME280;6861;46.170;7.222;2023-02-25T03:57:50;94815.94;;;10.42;56.99
13581;BME280;6861;46.170;7.222;2023-02-25T04:00:21;94817.91;;;10.36;57.82
13581;BME280;6861;46.170;7.222;2023-02-25T04:02:50;94824.47;;;10.34;57.57
13581;BME280;6861;46.170;7.222;2023-02-25T04:05:20;94814.31;;;10.32;57.83
13581;BME280;6861;46.170;7.222;2023-02-25T04:07:48;94815.38;;;10.31;57.39
13581;BME280;6861;46.170;7.222;2023-02-25T04:10:16;94810.16;;;10.31;57.47
13581;BME280;6861;46.170;7.222;2023-02-25T04:12:44;94814.78;;;10.34;57.22
13581;BME280;6861;46.170;7.222;2023-02-25T04:15:13;94819.16;;;10.39;57.18
13581;BME280;6861;46.170;7.222;2023-02-25T04:17:41;94813.03;;;10.43;57.04
13581;BME280;6861;46.170;7.222;2023-02-25T04:20:13;94817.66;;;10.46;56.88
13581;BME280;6861;46.170;7.222;2023-02-25T04:22:42;94818.06;;;10.54;56.63
13581;BME280;6861;46.170;7.222;2023-02-25T04:25:10;94811.75;;;10.55;56.61
13581;BME280;6861;46.170;7.222;2023-02-25T04:27:38;94810.41;;;10.57;56.19
13581;BME280;6861;46.170;7.222;2023-02-25T04:30:08;94812.81;;;10.54;56.28
13581;BME280;6861;46.170;7.222;2023-02-25T04:32:36;94805.56;;;10.50;56.23
13581;BME280;6861;46.170;7.222;2023-02-25T04:35:05;94803.72;;;10.51;56.06
13581;BME280;6861;46.170;7.222;2023-02-25T04:37:39;94799.84;;;10.48;56.27
13581;BME280;6861;46.170;7.222;2023-02-25T04:40:12;94808.19;;;10.50;55.62
13581;BME280;6861;46.170;7.222;2023-02-25T04:42:41;94810.31;;;10.48;55.83
13581;BME280;6861;46.170;7.222;2023-02-25T04:45:10;94813.03;;;10.43;55.75
13581;BME280;6861;46.170;7.222;2023-02-25T04:47:39;94817.91;;;10.36;55.79
13581;BME280;6861;46.170;7.222;2023-02-25T04:50:09;94816.81;;;10.24;55.81
13581;BME280;6861;46.170;7.222;2023-02-25T04:52:38;94825.69;;;10.09;55.77
13581;BME280;6861;46.170;7.222;2023-02-25T04:55:07;94820.06;;;10.02;55.98
13581;BME280;6861;46.170;7.222;2023-02-25T04:57:36;94826.34;;;10.01;55.86
13581;BME280;6861;46.170;7.222;2023-02-25T05:00:11;94822.28;;;9.95;55.89
13581;BME280;6861;46.170;7.222;2023-02-25T05:02:42;94831.75;;;9.91;56.05
13581;BME280;6861;46.170;7.222;2023-02-25T05:05:10;94826.53;;;9.91;55.98
13581;BME280;6861;46.170;7.222;2023-02-25T05:07:40;94831.19;;;9.94;55.99
13581;BME280;6861;46.170;7.222;2023-02-25T05:10:09;94835.53;;;9.98;55.63
13581;BME280;6861;46.170;7.222;2023-02-25T05:12:38;94842.03;;;10.01;55.61
13581;BME280;6861;46.170;7.222;2023-02-25T05:15:07;94845.13;;;10.03;55.57
13581;BME280;6861;46.170;7.222;2023-02-25T05:17:36;94838.94;;;9.99;55.60
13581;BME280;6861;46.170;7.222;2023-02-25T05:20:05;94831.19;;;9.94;56.18
13581;BME280;6861;46.170;7.222;2023-02-25T05:22:40;94827.50;;;9.95;55.92
13581;BME280;6861;46.170;7.222;2023-02-25T05:25:08;94830.50;;;10.02;55.83
13581;BME280;6861;46.170;7.222;2023-02-25T05:27:37;94837.19;;;10.08;55.77
13581;BME280;6861;46.170;7.222;2023-02-25T05:30:06;94833.94;;;10.16;55.73
13581;BME280;6861;46.170;7.222;2023-02-25T05:32:34;94837.25;;;10.22;55.89
13581;BME280;6861;46.170;7.222;2023-02-25T05:35:05;94838.81;;;10.23;56.66
13581;BME280;6861;46.170;7.222;2023-02-25T05:37:34;94838.81;;;10.23;56.36
13581;BME280;6861;46.170;7.222;2023-02-25T05:40:05;94838.03;;;10.22;56.76
13581;BME280;6861;46.170;7.222;2023-02-25T05:42:35;94835.91;;;10.24;56.41
13581;BME280;6861;46.170;7.222;2023-02-25T05:45:05;94839.50;;;10.28;56.53
13581;BME280;6861;46.170;7.222;2023-02-25T05:47:33;94845.00;;;10.27;56.46
13581;BME280;6861;46.170;7.222;2023-02-25T05:50:01;94843.66;;;10.29;56.46
13581;BME280;6861;46.170;7.222;2023-02-25T05:52:29;94843.06;;;10.32;56.50
13581;BME280;6861;46.170;7.222;2023-02-25T05:54:57;94846.94;;;10.35;56.32
13581;BME280;6861;46.170;7.222;2023-02-25T05:57:27;94845.09;;;10.35;56.54
13581;BME280;6861;46.170;7.222;2023-02-25T05:59:55;94832.41;;;10.29;56.75
13581;BME280;6861;46.170;7.222;2023-02-25T06:02:24;94822.34;;;10.22;56.88
13581;BME280;6861;46.170;7.222;2023-02-25T06:04:52;94829.69;;;10.20;57.06
13581;BME280;6861;46.170;7.222;2023-02-25T06:07:20;94816.13;;;10.18;57.44
13581;BME280;6861;46.170;7.222;2023-02-25T06:09:48;94826.50;;;10.23;57.15
13581;BME280;6861;46.170;7.222;2023-02-25T06:12:16;94820.78;;;10.21;57.96
13581;BME280;6861;46.170;7.222;2023-02-25T06:14:45;94815.06;;;10.19;57.34
13581;BME280;6861;46.170;7.222;2023-02-25T06:17:13;94823.97;;;10.18;57.43
13581;BME280;6861;46.170;7.222;2023-02-25T06:19:41;94818.72;;;10.18;57.33
13581;BME280;6861;46.170;7.222;2023-02-25T06:22:09;94817.47;;;10.15;57.32
13581;BME280;6861;46.170;7.222;2023-02-25T06:24:37;94818.53;;;10.14;57.36
13581;BME280;6861;46.170;7.222;2023-02-25T06:27:06;94817.28;;;10.12;57.23
13581;BME280;6861;46.170;7.222;2023-02-25T06:29:34;94823.28;;;10.12;57.23
13581;BME280;6861;46.170;7.222;2023-02-25T06:32:04;94813.59;;;10.13;57.05
13581;BME280;6861;46.170;7.222;2023-02-25T06:34:32;94815.72;;;10.11;57.22
13581;BME280;6861;46.170;7.222;2023-02-25T06:37:00;94823.84;;;10.09;57.55
13581;BME280;6861;46.170;7.222;2023-02-25T06:39:28;94824.06;;;10.13;57.66
13581;BME280;6861;46.170;7.222;2023-02-25T06:41:56;94828.13;;;10.19;57.51
13581;BME280;6861;46.170;7.222;2023-02-25T06:44:25;94830.38;;;10.26;57.57
13581;BME280;6861;46.170;7.222;2023-02-25T06:46:54;94829.72;;;10.34;57.23
13581;BME280;6861;46.170;7.222;2023-02-25T06:49:24;94830.56;;;10.43;57.21
13581;BME280;6861;46.170;7.222;2023-02-25T06:51:52;94841.22;;;10.46;56.96
13581;BME280;6861;46.170;7.222;2023-02-25T06:54:20;94841.13;;;10.51;57.13
13581;BME280;6861;46.170;7.222;2023-02-25T06:56:48;94846.06;;;10.53;56.94
13581;BME280;6861;46.170;7.222;2023-02-25T06:59:16;94844.78;;;10.50;56.92
13581;BME280;6861;46.170;7.222;2023-02-25T07:01:44;94842.47;;;10.49;57.23
13581;BME280;6861;46.170;7.222;2023-02-25T07:04:14;94848.09;;;10.42;57.16
13581;BME280;6861;46.170;7.222;2023-02-25T07:06:44;94856.53;;;10.39;57.29
13581;BME280;6861;46.170;7.222;2023-02-25T07:09:12;94850.63;;;10.34;57.71
13581;BME280;6861;46.170;7.222;2023-02-25T07:11:40;94850.91;;;10.32;57.43
13581;BME280;6861;46.170;7.222;2023-02-25T07:14:08;94847.91;;;10.25;57.50
13581;BME280;6861;46.170;7.222;2023-02-25T07:16:39;94842.25;;;10.18;57.61
13581;BME280;6861;46.170;7.222;2023-02-25T07:19:07;94843.41;;;10.12;57.13
13581;BME280;6861;46.170;7.222;2023-02-25T07:21:35;94835.66;;;10.07;57.81
13581;BME280;6861;46.170;7.222;2023-02-25T07:24:05;94840.88;;;10.07;57.63
13581;BME280;6861;46.170;7.222;2023-02-25T07:26:33;94838.19;;;10.12;57.44
13581;BME280;6861;46.170;7.222;2023-02-25T07:29:03;94834.50;;;10.13;57.46
13581;BME280;6861;46.170;7.222;2023-02-25T07:31:32;94831.50;;;10.06;57.68
13581;BME280;6861;46.170;7.222;2023-02-25T07:34:00;94828.59;;;10.07;57.64
13581;BME280;6861;46.170;7.222;2023-02-25T07:36:30;94824.13;;;10.08;57.79
13581;BME280;6861;46.170;7.222;2023-02-25T07:38:59;94815.72;;;10.11;57.74
13581;BME280;6861;46.170;7.222;2023-02-25T07:41:29;94818.03;;;10.12;57.45
13581;BME280;6861;46.170;7.222;2023-02-25T07:43:57;94819.78;;;10.17;57.49
13581;BME280;6861;46.170;7.222;2023-02-25T07:46:25;94825.44;;;10.24;57.39
13581;BME280;6861;46.170;7.222;2023-02-25T07:48:53;94816.34;;;10.35;57.35
13581;BME280;6861;46.170;7.222;2023-02-25T07:51:22;94816.31;;;10.49;56.82
13581;BME280;6861;46.170;7.222;2023-02-25T07:53:52;94826.78;;;10.63;57.00
13581;BME280;6861;46.170;7.222;2023-02-25T07:56:23;94813.09;;;10.66;56.45
13581;BME280;6861;46.170;7.222;2023-02-25T07:58:53;94814.06;;;10.70;56.21
13581;BME280;6861;46.170;7.222;2023-02-25T08:01:24;94807.38;;;10.77;55.93
13581;BME280;6861;46.170;7.222;2023-02-25T08:03:54;94805.44;;;10.83;55.94
13581;BME280;6861;46.170;7.222;2023-02-25T08:06:22;94806.88;;;10.89;55.98
13581;BME280;6861;46.170;7.222;2023-02-25T08:08:51;94800.34;;;11.00;55.58
13581;BME280;6861;46.170;7.222;2023-02-25T08:11:22;94806.91;;;11.11;54.96
13581;BME280;6861;46.170;7.222;2023-02-25T08:13:52;94796.41;;;11.25;54.58
13581;BME280;6861;46.170;7.222;2023-02-25T08:16:21;94802.50;;;11.43;54.90
13581;BME280;6861;46.170;7.222;2023-02-25T08:18:49;94798.44;;;11.59;54.24
13581;BME280;6861;46.170;7.222;2023-02-25T08:21:20;94788.81;;;11.68;53.79
13581;BME280;6861;46.170;7.222;2023-02-25T08:23:49;94789.16;;;11.75;53.49
13581;BME280;6861;46.170;7.222;2023-02-25T08:26:19;94783.91;;;11.75;54.02
13581;BME280;6861;46.170;7.222;2023-02-25T08:28:49;94783.72;;;11.72;53.76
13581;BME280;6861;46.170;7.222;2023-02-25T08:31:19;94778.66;;;11.75;54.14
13581;BME280;6861;46.170;7.222;2023-02-25T08:33:49;94769.72;;;11.76;54.10
13581;BME280;6861;46.170;7.222;2023-02-25T08:36:20;94770.94;;;11.70;53.42
13581;BME280;6861;46.170;7.222;2023-02-25T08:38:49;94776.59;;;11.64;54.15
13581;BME280;6861;46.170;7.222;2023-02-25T08:41:18;94768.44;;;11.65;53.77
13581;BME280;6861;46.170;7.222;2023-02-25T08:43:47;94762.13;;;11.66;53.79
13581;BME280;6861;46.170;7.222;2023-02-25T08:46:15;94759.84;;;11.73;53.80
13581;BME280;6861;46.170;7.222;2023-02-25T08:48:49;94753.91;;;11.81;52.42
13581;BME280;6861;46.170;7.222;2023-02-25T08:51:18;94756.28;;;11.92;52.27
13581;BME280;6861;46.170;7.222;2023-02-25T08:53:47;94756.59;;;11.99;52.76
13581;BME280;6861;46.170;7.222;2023-02-25T08:56:15;94745.69;;;12.05;51.45
13581;BME280;6861;46.170;7.222;2023-02-25T08:58:43;94744.59;;;12.15;51.82
13581;BME280;6861;46.170;7.222;2023-02-25T09:01:13;94740.63;;;12.26;51.24
13581;BME280;6861;46.170;7.222;2023-02-25T09:03:44;94738.56;;;12.63;50.55
13581;BME280;6861;46.170;7.222;2023-02-25T09:06:22;94738.25;;;13.25;49.46
13581;BME280;6861;46.170;7.222;2023-02-25T09:08:51;94723.75;;;14.50;47.32
13581;BME280;6861;46.170;7.222;2023-02-25T09:11:21;94726.69;;;16.62;43.38
13581;BME280;6861;46.170;7.222;2023-02-25T09:13:50;94728.19;;;17.28;41.13
13581;BME280;6861;46.170;7.222;2023-02-25T09:16:18;94719.34;;;16.68;41.77
13581;BME280;6861;46.170;7.222;2023-02-25T09:18:48;94722.56;;;16.13;42.47
13581;BME280;6861;46.170;7.222;2023-02-25T09:21:17;94725.25;;;15.67;43.35
13581;BME280;6861;46.170;7.222;2023-02-25T09:23:47;94713.28;;;15.37;43.56
13581;BME280;6861;46.170;7.222;2023-02-25T09:26:17;94709.88;;;15.03;43.84
13581;BME280;6861;46.170;7.222;2023-02-25T09:28:46;94712.06;;;15.01;43.87
13581;BME280;6861;46.170;7.222;2023-02-25T09:31:15;94716.69;;;15.70;42.73
13581;BME280;6861;46.170;7.222;2023-02-25T09:33:45;94699.78;;;17.25;40.40
13581;BME280;6861;46.170;7.222;2023-02-25T09:36:15;94708.63;;;19.71;36.13
13581;BME280;6861;46.170;7.222;2023-02-25T09:38:45;94699.38;;;21.93;33.59
13581;BME280;6861;46.170;7.222;2023-02-25T09:41:23;94692.34;;;24.49;30.63
13581;BME280;6861;46.170;7.222;2023-02-25T09:43:59;94695.13;;;26.89;28.35
13581;BME280;6861;46.170;7.222;2023-02-25T09:46:33;94690.72;;;28.67;25.91
13581;BME280;6861;46.170;7.222;2023-02-25T09:49:05;94692.09;;;29.90;24.45
13581;BME280;6861;46.170;7.222;2023-02-25T09:51:37;94697.38;;;30.91;23.49
13581;BME280;6861;46.170;7.222;2023-02-25T09:54:15;94680.38;;;31.74;22.43
13581;BME280;6861;46.170;7.222;2023-02-25T09:56:46;94677.81;;;32.43;21.54
13581;BME280;6861;46.170;7.222;2023-02-25T09:59:16;94676.81;;;33.06;21.04
13581;BME280;6861;46.170;7.222;2023-02-25T10:01:50;94675.06;;;33.65;19.94
13581;BME280;6861;46.170;7.222;2023-02-25T10:04:29;94677.56;;;33.81;19.64
13581;BME280;6861;46.170;7.222;2023-02-25T10:07:06;94677.63;;;34.00;18.97
13581;BME280;6861;46.170;7.222;2023-02-25T10:09:42;94666.19;;;34.14;18.75
13581;BME280;6861;46.170;7.222;2023-02-25T10:12:23;94682.59;;;34.60;18.07
13581;BME280;6861;46.170;7.222;2023-02-25T10:15:04;94668.03;;;34.26;16.97
13581;BME280;6861;46.170;7.222;2023-02-25T10:17:57;94659.03;;;33.80;17.38
13581;BME280;6861;46.170;7.222;2023-02-25T10:20:39;94658.78;;;33.65;17.49
13581;BME280;6861;46.170;7.222;2023-02-25T10:23:19;94665.72;;;34.06;17.38
13581;BME280;6861;46.170;7.222;2023-02-25T10:25:55;94653.63;;;34.93;16.91
13581;BME280;6861;46.170;7.222;2023-02-25T10:28:26;94642.97;;;35.41;15.71
13581;BME280;6861;46.170;7.222;2023-02-25T10:30:58;94649.34;;;35.20;15.40
13581;BME280;6861;46.170;7.222;2023-02-25T10:33:33;94644.34;;;35.27;15.19
13581;BME280;6861;46.170;7.222;2023-02-25T10:36:08;94646.03;;;35.67;15.14
13581;BME280;6861;46.170;7.222;2023-02-25T10:38:38;94647.81;;;35.46;15.27
13581;BME280;6861;46.170;7.222;2023-02-25T10:41:11;94652.63;;;35.51;15.15
13581;BME280;6861;46.170;7.222;2023-02-25T10:43:41;94647.19;;;36.17;15.12
13581;BME280;6861;46.170;7.222;2023-02-25T10:46:13;94644.50;;;36.56;14.43
13581;BME280;6861;46.170;7.222;2023-02-25T10:48:46;94633.16;;;37.11;13.92
13581;BME280;6861;46.170;7.222;2023-02-25T10:51:17;94638.19;;;37.91;13.87
13581;BME280;6861;46.170;7.222;2023-02-25T10:54:01;94621.88;;;38.17;13.33
13581;BME280;6861;46.170;7.222;2023-02-25T10:56:33;94630.50;;;38.71;13.41
13581;BME280;6861;46.170;7.222;2023-02-25T10:59:23;94614.84;;;39.49;12.69
13581;BME280;6861;46.170;7.222;2023-02-25T11:01:55;94603.50;;;40.05;12.40
13581;BME280;6861;46.170;7.222;2023-02-25T11:04:29;94612.44;;;40.48;12.01
13581;BME280;6861;46.170;7.222;2023-02-25T11:06:59;94601.88;;;41.45;11.32
13581;BME280;6861;46.170;7.222;2023-02-25T11:09:30;94604.03;;;42.13;10.59
13581;BME280;6861;46.170;7.222;2023-02-25T11:12:10;94594.50;;;42.78;10.28
13581;BME280;6861;46.170;7.222;2023-02-25T11:14:39;94594.59;;;43.38;9.96
13581;BME280;6861;46.170;7.222;2023-02-25T11:17:13;94588.22;;;44.08;9.74
13581;BME280;6861;46.170;7.222;2023-02-25T11:19:44;94587.53;;;44.83;9.49
13581;BME280;6861;46.170;7.222;2023-02-25T11:22:16;94590.13;;;45.26;9.26
13581;BME280;6861;46.170;7.222;2023-02-25T11:24:54;94578.09;;;45.56;8.94
13581;BME280;6861;46.170;7.222;2023-02-25T11:27:31;94576.44;;;45.66;8.85
13581;BME280;6861;46.170;7.222;2023-02-25T11:30:07;94574.38;;;45.53;8.68
13581;BME280;6861;46.170;7.222;2023-02-25T11:32:43;94566.59;;;45.06;8.93
13581;BME280;6861;46.170;7.222;2023-02-25T11:35:15;94565.91;;;44.06;9.02
13581;BME280;6861;46.170;7.222;2023-02-25T11:37:44;94561.97;;;42.76;9.70
13581;BME280;6861;46.170;7.222;2023-02-25T11:40:23;94560.38;;;41.76;10.15
13581;BME280;6861;46.170;7.222;2023-02-25T11:43:01;94561.41;;;40.89;10.53
13581;BME280;6861;46.170;7.222;2023-02-25T11:45:33;94548.31;;;38.80;11.76
13581;BME280;6861;46.170;7.222;2023-02-25T11:48:04;94538.13;;;35.22;13.72
13581;BME280;6861;46.170;7.222;2023-02-25T11:50:41;94539.72;;;31.61;15.55
13581;BME280;6861;46.170;7.222;2023-02-25T11:53:23;94535.84;;;28.62;17.96
13581;BME280;6861;46.170;7.222;2023-02-25T11:55:59;94537.03;;;26.37;19.67
13581;BME280;6861;46.170;7.222;2023-02-25T11:58:40;94533.75;;;24.63;21.35
13581;BME280;6861;46.170;7.222;2023-02-25T12:01:21;94534.75;;;23.21;22.52
13581;BME280;6861;46.170;7.222;2023-02-25T12:04:08;94532.09;;;22.13;24.17
13581;BME280;6861;46.170;7.222;2023-02-25T12:07:08;94531.41;;;21.21;24.89
13581;BME280;6861;46.170;7.222;2023-02-25T12:10:18;94526.84;;;20.44;26.07
13581;BME280;6861;46.170;7.222;2023-02-25T12:19:15;94515.47;;;18.88;28.48
13581;BME280;6861;46.170;7.222;2023-02-25T12:22:31;94515.22;;;18.55;28.92
13581;BME280;6861;46.170;7.222;2023-02-25T12:25:16;94505.31;;;18.32;29.22
13581;BME280;6861;46.170;7.222;2023-02-25T12:28:02;94499.47;;;18.23;29.51
13581;BME280;6861;46.170;7.222;2023-02-25T12:31:11;94493.56;;;18.11;29.86
13581;BME280;6861;46.170;7.222;2023-02-25T12:34:15;94495.44;;;17.91;30.27
13581;BME280;6861;46.170;7.222;2023-02-25T12:37:02;94489.41;;;17.75;29.97
13581;BME280;6861;46.170;7.222;2023-02-25T12:39:58;94492.56;;;17.64;30.21
13581;BME280;6861;46.170;7.222;2023-02-25T12:42:47;94490.47;;;17.54;30.25
13581;BME280;6861;46.170;7.222;2023-02-25T12:45:51;94482.53;;;17.54;30.20
13581;BME280;6861;46.170;7.222;2023-02-25T12:48:37;94482.94;;;17.56;30.72
13581;BME280;6861;46.170;7.222;2023-02-25T12:51:30;94482.59;;;17.58;30.69
13581;BME280;6861;46.170;7.222;2023-02-25T12:54:11;94468.88;;;17.52;30.57
13581;BME280;6861;46.170;7.222;2023-02-25T12:56:59;94464.97;;;17.46;30.57
13581;BME280;6861;46.170;7.222;2023-02-25T12:59:47;94461.13;;;17.44;31.20
13581;BME280;6861;46.170;7.222;2023-02-25T13:02:36;94451.31;;;17.44;30.97
13581;BME280;6861;46.170;7.222;2023-02-25T13:05:48;94445.34;;;17.47;30.42
13581;BME280;6861;46.170;7.222;2023-02-25T13:08:34;94434.88;;;17.35;30.52
13581;BME280;6861;46.170;7.222;2023-02-25T13:11:14;94412.50;;;17.29;30.33
13581;BME280;6861;46.170;7.222;2023-02-25T13:17:03;94414.22;;;17.06;31.18
13581;BME280;6861;46.170;7.222;2023-02-25T13:19:53;94392.50;;;16.96;31.39
13581;BME280;6861;46.170;7.222;2023-02-25T13:22:36;94399.59;;;16.92;31.12
13581;BME280;6861;46.170;7.222;2023-02-25T13:25:16;94403.34;;;16.91;31.22
13581;BME280;6861;46.170;7.222;2023-02-25T13:28:08;94397.81;;;16.81;31.15
13581;BME280;6861;46.170;7.222;2023-02-25T13:30:48;94384.09;;;16.75;31.04
13581;BME280;6861;46.170;7.222;2023-02-25T13:33:42;94382.53;;;16.74;31.88
13581;BME280;6861;46.170;7.222;2023-02-25T13:36:25;94380.34;;;16.76;31.52
13581;BME280;6861;46.170;7.222;2023-02-25T13:39:14;94380.16;;;16.69;32.44
13581;BME280;6861;46.170;7.222;2023-02-25T13:42:03;94370.38;;;16.69;32.32
13581;BME280;6861;46.170;7.222;2023-02-25T13:44:54;94378.44;;;16.61;32.65
13581;BME280;6861;46.170;7.222;2023-02-25T13:47:36;94370.84;;;16.59;32.05
13581;BME280;6861;46.170;7.222;2023-02-25T13:50:40;94371.06;;;16.66;32.06
13581;BME280;6861;46.170;7.222;2023-02-25T13:53:29;94359.88;;;16.73;32.21
13581;BME280;6861;46.170;7.222;2023-02-25T13:56:13;94357.41;;;16.80;31.98
13581;BME280;6861;46.170;7.222;2023-02-25T13:59:14;94356.31;;;16.81;32.04